Date,TemperatureHighF,TemperatureAvgF,TemperatureLowF,DewpointHighF,DewpointAvgF,DewpointLowF,HumidityHigh,HumidityAvg,HumidityLow,PressureMaxIn,PressureMinIn,WindSpeedMaxMPH,WindSpeedAvgMPH,GustSpeedMaxMPH,PrecipitationSumIn
2013-3-1,30.0,26.5,25.0,23.0,20.4,16.0,90,77,65,0.00,40.00,12,8,16,0.39
2013-3-2,31.0,23.8,15.0,18.0,15.4,12.0,86,70,53,0.00,40.00,12,6,16,0.00
2013-3-3,36.0,28.2,21.0,24.0,19.8,17.0,87,71,51,0.00,40.00,21,11,26,0.16
2013-3-4,38.0,31.9,27.0,30.0,27.9,24.0,95,85,70,0.00,40.00,23,14,29,0.00
2013-3-5,32.0,29.1,26.0,30.0,23.5,20.0,97,79,63,0.00,40.00,19,6,32,1.04
2013-3-6,30.0,24.5,18.0,22.0,18.7,15.0,88,78,64,0.00,40.00,18,8,26,0.00
2013-3-7,35.0,24.5,15.0,24.0,19.6,13.0,93,82,60,0.00,40.00,16,8,20,0.00
2013-3-8,45.0,33.8,24.0,34.0,28.0,22.0,95,79,59,0.00,40.00,17,11,24,0.78
2013-3-9,41.0,38.4,36.0,41.0,37.4,34.0,97,96,90,0.00,40.00,21,11,28,2.91
2013-3-10,39.0,34.7,32.0,38.0,33.9,31.0,97,96,96,0.00,40.00,19,11,26,4.06
2013-3-11,32.0,27.5,24.0,31.0,24.1,18.0,96,86,73,0.00,40.00,18,13,25,0.69
2013-3-12,34.0,26.8,21.0,26.0,19.7,16.0,84,74,62,0.00,40.00,26,14,38,0.14
2013-3-13,33.0,24.9,17.0,20.0,15.5,12.0,81,68,44,0.00,40.00,15,7,22,0.00
2013-3-14,50.0,37.9,26.0,33.0,28.2,20.0,90,69,48,0.00,40.00,11,7,16,0.00
2013-3-15,55.0,41.1,31.0,44.0,36.4,30.0,96,84,62,0.00,40.00,12,5,17,0.00
2013-3-16,36.0,32.3,27.0,35.0,26.3,20.0,96,79,64,0.00,40.00,19,12,28,0.00
2013-3-17,41.0,30.9,22.0,28.0,21.5,17.0,83,68,52,0.00,40.00,22,13,28,0.00
2013-3-18,34.0,29.0,22.0,33.0,22.5,11.0,96,77,57,0.00,40.00,32,15,41,0.44
2013-3-19,37.0,24.9,17.0,17.0,10.5,7.0,65,54,38,0.00,40.00,19,11,29,0.00
2013-3-20,27.0,20.6,14.0,13.0,8.3,4.0,74,59,45,0.00,40.00,20,13,29,0.00
2013-3-21,37.0,23.6,12.0,17.0,11.2,6.0,77,60,37,0.00,40.00,10,5,17,0.00
2013-3-22,39.0,29.2,18.0,24.0,18.3,15.0,88,66,40,0.00,40.00,9,4,13,0.08
2013-3-23,39.0,31.3,26.0,29.0,23.4,18.0,93,74,42,0.00,40.00,11,5,14,0.43
2013-3-24,31.0,29.0,27.0,29.0,27.5,26.0,97,93,80,0.00,40.00,17,12,26,2.25
2013-3-25,35.0,30.5,28.0,28.0,23.5,20.0,97,76,55,0.00,40.00,19,-2,26,0.00
2013-3-26,41.0,30.7,22.0,24.0,20.6,18.0,85,67,43,0.00,40.00,12,7,16,0.00
2013-3-27,48.0,35.6,24.0,28.0,23.9,20.0,88,64,40,0.00,40.00,10,5,16,0.00
2013-3-28,58.0,42.5,29.0,34.0,30.0,26.0,92,64,37,0.00,40.00,14,8,19,0.00
2013-3-29,64.0,47.5,33.0,36.0,33.2,31.0,92,62,32,0.00,40.00,14,8,19,0.00
2013-3-30,57.0,49.1,45.0,52.0,43.1,-99.9,96,83,59,0.00,40.00,14,6,19,1.02
2013-3-31,51.0,42.5,33.0,45.0,31.9,20.0,97,70,32,0.00,40.00,24,10,34,0.00